sensor_id;sensor_type;location;lat;lon;timestamp;pressure;altitude;pressure_sealevel;temperature;humidity
68489;BME280;55481;48.764;8.936;2022-09-09T00:00:21;96680;;;15.2;70
68489;BME280;55481;48.764;8.936;2022-09-09T00:02:54;96670;;;15.2;70
68489;BME280;55481;48.764;8.936;2022-09-09T00:05:27;96670;;;15.2;70
68489;BME280;55481;48.764;8.936;2022-09-09T00:07:54;96680;;;15.1;70
68489;BME280;55481;48.764;8.936;2022-09-09T00:10:28;96670;;;15.1;70
68489;BME280;55481;48.764;8.936;2022-09-09T00:13:28;96670;;;15.1;70
68489;BME280;55481;48.764;8.936;2022-09-09T00:15:26;96670;;;15.1;70
68489;BME280;55481;48.764;8.936;2022-09-09T00:17:59;96670;;;15.2;70
68489;BME280;55481;48.764;8.936;2022-09-09T00:26:04;96660;;;15.4;69.5
68489;BME280;55481;48.764;8.936;2022-09-09T00:28:10;96660;;;15.4;69.5
68489;BME280;55481;48.764;8.936;2022-09-09T00:30:35;96660;;;15.4;69.5
68489;BME280;55481;48.764;8.936;2022-09-09T00:33:00;96660;;;15.5;69.5
68489;BME280;55481;48.764;8.936;2022-09-09T00:35:31;96660;;;15.5;69.5
68489;BME280;55481;48.764;8.936;2022-09-09T00:38:01;96650;;;15.6;69.5
68489;BME280;55481;48.764;8.936;2022-09-09T00:48:10;96660;;;15.7;69
68489;BME280;55481;48.764;8.936;2022-09-09T00:53:09;96660;;;15.7;69
68489;BME280;55481;48.764;8.936;2022-09-09T00:55:54;96660;;;15.8;69
68489;BME280;55481;48.764;8.936;2022-09-09T00:58:06;96660;;;15.8;69
68489;BME280;55481;48.764;8.936;2022-09-09T01:00:45;96650;;;15.7;69
68489;BME280;55481;48.764;8.936;2022-09-09T01:03:21;96650;;;15.6;69.5
68489;BME280;55481;48.764;8.936;2022-09-09T01:10:48;96660;;;15.3;70
68489;BME280;55481;48.764;8.936;2022-09-09T01:13:26;96660;;;15.1;70.5
68489;BME280;55481;48.764;8.936;2022-09-09T01:18:12;96660;;;15.1;70.5
68489;BME280;55481;48.764;8.936;2022-09-09T01:21:49;96660;;;15.2;70.5
68489;BME280;55481;48.764;8.936;2022-09-09T01:23:17;96670;;;15.2;70
68489;BME280;55481;48.764;8.936;2022-09-09T01:26:36;96670;;;15.2;70
68489;BME280;55481;48.764;8.936;2022-09-09T01:33:13;96670;;;15.4;69.5
68489;BME280;55481;48.764;8.936;2022-09-09T01:35:57;96680;;;15.5;69
68489;BME280;55481;48.764;8.936;2022-09-09T01:38:11;96690;;;15.4;69.5
68489;BME280;55481;48.764;8.936;2022-09-09T01:40:41;96680;;;15.4;69.5
68489;BME280;55481;48.764;8.936;2022-09-09T01:43:13;96670;;;15.4;69.5
68489;BME280;55481;48.764;8.936;2022-09-09T01:45:51;96670;;;15.7;68.5
68489;BME280;55481;48.764;8.936;2022-09-09T01:48:22;96680;;;15.8;68.5
68489;BME280;55481;48.764;8.936;2022-09-09T01:50:52;96660;;;15.8;68.5
68489;BME280;55481;48.764;8.936;2022-09-09T01:53:16;96660;;;15.8;68.5
68489;BME280;55481;48.764;8.936;2022-09-09T02:03:34;96660;;;15.7;69
68489;BME280;55481;48.764;8.936;2022-09-09T02:08:22;96670;;;15.4;69.5
68489;BME280;55481;48.764;8.936;2022-09-09T02:11:07;96670;;;15.3;70
68489;BME280;55481;48.764;8.936;2022-09-09T02:13:27;96660;;;15.2;70
68489;BME280;55481;48.764;8.936;2022-09-09T02:15:55;96660;;;15.2;70
68489;BME280;55481;48.764;8.936;2022-09-09T02:18:40;96670;;;15.2;70
68489;BME280;55481;48.764;8.936;2022-09-09T02:21:13;96670;;;15.1;70
68489;BME280;55481;48.764;8.936;2022-09-09T02:23:37;96670;;;15;70
68489;BME280;55481;48.764;8.936;2022-09-09T02:26:07;96680;;;14.9;70.5
68489;BME280;55481;48.764;8.936;2022-09-09T02:31:02;96680;;;14.8;70.5
68489;BME280;55481;48.764;8.936;2022-09-09T02:33:35;96680;;;14.9;70.5
68489;BME280;55481;48.764;8.936;2022-09-09T02:36:04;96680;;;15;70
68489;BME280;55481;48.764;8.936;2022-09-09T02:38:37;96680;;;15.1;69.5
68489;BME280;55481;48.764;8.936;2022-09-09T02:41:07;96670;;;15.1;69.5
68489;BME280;55481;48.764;8.936;2022-09-09T02:43:37;96670;;;15.1;69.5
68489;BME280;55481;48.764;8.936;2022-09-09T02:46:03;96660;;;15.1;69.5
68489;BME280;55481;48.764;8.936;2022-09-09T02:48:34;96660;;;15.1;69.5
68489;BME280;55481;48.764;8.936;2022-09-09T02:56:05;96640;;;15;70
68489;BME280;55481;48.764;8.936;2022-09-09T03:01:05;96630;;;15;69.5
68489;BME280;55481;48.764;8.936;2022-09-09T03:06:21;96640;;;14.9;70
68489;BME280;55481;48.764;8.936;2022-09-09T03:08:45;96650;;;14.9;70
68489;BME280;55481;48.764;8.936;2022-09-09T03:11:16;96650;;;14.9;69.5
68489;BME280;55481;48.764;8.936;2022-09-09T03:13:39;96650;;;14.9;69.5
68489;BME280;55481;48.764;8.936;2022-09-09T03:16:09;96650;;;14.9;69.5
68489;BME280;55481;48.764;8.936;2022-09-09T03:23:42;96640;;;14.7;70
68489;BME280;55481;48.764;8.936;2022-09-09T03:28:44;96650;;;14.6;70
68489;BME280;55481;48.764;8.936;2022-09-09T03:31:14;96650;;;14.5;70.5
68489;BME280;55481;48.764;8.936;2022-09-09T03:33:59;96650;;;14.5;70
68489;BME280;55481;48.764;8.936;2022-09-09T03:36:29;96660;;;14.6;70
68489;BME280;55481;48.764;8.936;2022-09-09T03:38:59;96660;;;14.6;70
68489;BME280;55481;48.764;8.936;2022-09-09T03:43:52;96660;;;14.6;70
68489;BME280;55481;48.764;8.936;2022-09-09T03:46:25;96660;;;14.6;70
68489;BME280;55481;48.764;8.936;2022-09-09T03:49:01;96660;;;14.8;69.5
68489;BME280;55481;48.764;8.936;2022-09-09T03:51:32;96660;;;14.9;69
68489;BME280;55481;48.764;8.936;2022-09-09T03:56:47;96650;;;14.9;69
68489;BME280;55481;48.764;8.936;2022-09-09T03:59:03;96650;;;15;69
68489;BME280;55481;48.764;8.936;2022-09-09T04:01:34;96640;;;15;69
68489;BME280;55481;48.764;8.936;2022-09-09T04:03:58;96650;;;15;69
68489;BME280;55481;48.764;8.936;2022-09-09T04:06:30;96650;;;14.9;69.5
68489;BME280;55481;48.764;8.936;2022-09-09T04:09:00;96660;;;14.8;69.5
68489;BME280;55481;48.764;8.936;2022-09-09T04:11:35;96650;;;14.8;69.5
68489;BME280;55481;48.764;8.936;2022-09-09T04:21:28;96660;;;14.6;70
68489;BME280;55481;48.764;8.936;2022-09-09T04:23:58;96660;;;14.6;70
68489;BME280;55481;48.764;8.936;2022-09-09T04:26:30;96660;;;14.6;70
68489;BME280;55481;48.764;8.936;2022-09-09T04:29:00;96660;;;14.6;70
68489;BME280;55481;48.764;8.936;2022-09-09T04:31:31;96670;;;14.6;70
68489;BME280;55481;48.764;8.936;2022-09-09T04:39:16;96670;;;14.7;69.5
68489;BME280;55481;48.764;8.936;2022-09-09T04:44:12;96670;;;14.7;69.5
68489;BME280;55481;48.764;8.936;2022-09-09T04:46:42;96670;;;14.7;69.5
68489;BME280;55481;48.764;8.936;2022-09-09T04:49:13;96670;;;14.8;69.5
68489;BME280;55481;48.764;8.936;2022-09-09T04:54:15;96680;;;14.9;69
68489;BME280;55481;48.764;8.936;2022-09-09T04:56:45;96670;;;14.9;69.5
68489;BME280;55481;48.764;8.936;2022-09-09T04:59:16;96680;;;14.8;69.5
68489;BME280;55481;48.764;8.936;2022-09-09T05:09:12;96700;;;14.7;70
68489;BME280;55481;48.764;8.936;2022-09-09T05:11:42;96700;;;14.8;70
68489;BME280;55481;48.764;8.936;2022-09-09T05:14:13;96690;;;14.8;69.5
68489;BME280;55481;48.764;8.936;2022-09-09T05:19:22;96690;;;14.9;69.5
68489;BME280;55481;48.764;8.936;2022-09-09T05:21:52;96690;;;14.9;69.5
68489;BME280;55481;48.764;8.936;2022-09-09T05:24:33;96690;;;15;69
68489;BME280;55481;48.764;8.936;2022-09-09T05:27:04;96700;;;15;69
68489;BME280;55481;48.764;8.936;2022-09-09T05:34:34;96710;;;14.9;69.5
68489;BME280;55481;48.764;8.936;2022-09-09T05:37:09;96700;;;14.8;69.5
68489;BME280;55481;48.764;8.936;2022-09-09T05:39:33;96700;;;14.8;69.5
68489;BME280;55481;48.764;8.936;2022-09-09T05:44:28;96700;;;14.8;69.5
68489;BME280;55481;48.764;8.936;2022-09-09T05:46:58;96700;;;14.9;69.5
68489;BME280;55481;48.764;8.936;2022-09-09T05:49:29;96700;;;15;69.5
68489;BME280;55481;48.764;8.936;2022-09-09T05:52:06;96710;;;15;69.5
68489;BME280;55481;48.764;8.936;2022-09-09T05:54:41;96700;;;15.1;69
68489;BME280;55481;48.764;8.936;2022-09-09T05:59:34;96700;;;15.3;68.5
68489;BME280;55481;48.764;8.936;2022-09-09T06:04:41;96700;;;15.4;68.5
68489;BME280;55481;48.764;8.936;2022-09-09T06:07:12;96700;;;15.4;68.5
68489;BME280;55481;48.764;8.936;2022-09-09T06:09:43;96700;;;15.5;68.5
68489;BME280;55481;48.764;8.936;2022-09-09T06:14:36;96700;;;15.4;68.5
68489;BME280;55481;48.764;8.936;2022-09-09T06:17:07;96700;;;15.3;69
68489;BME280;55481;48.764;8.936;2022-09-09T06:19:38;96710;;;15.2;69
68489;BME280;55481;48.764;8.936;2022-09-09T06:29:50;96710;;;15.3;69
68489;BME280;55481;48.764;8.936;2022-09-09T06:32:18;96710;;;15.3;69
68489;BME280;55481;48.764;8.936;2022-09-09T06:37:12;96710;;;15.5;68.5
68489;BME280;55481;48.764;8.936;2022-09-09T06:39:50;96710;;;15.6;68.5
68489;BME280;55481;48.764;8.936;2022-09-09T06:47:22;96710;;;15.7;68.5
68489;BME280;55481;48.764;8.936;2022-09-09T06:49:52;96710;;;15.8;68
68489;BME280;55481;48.764;8.936;2022-09-09T06:52:22;96710;;;15.9;68
68489;BME280;55481;48.764;8.936;2022-09-09T06:54:52;96710;;;15.9;68
68489;BME280;55481;48.764;8.936;2022-09-09T06:59:47;96710;;;15.9;68
68489;BME280;55481;48.764;8.936;2022-09-09T07:02:17;96710;;;16;68
68489;BME280;55481;48.764;8.936;2022-09-09T07:04:48;96700;;;16.3;67.5
68489;BME280;55481;48.764;8.936;2022-09-09T07:09:55;96710;;;17.1;66
68489;BME280;55481;48.764;8.936;2022-09-09T07:12:28;96710;;;16.7;67
68489;BME280;55481;48.764;8.936;2022-09-09T07:14:58;96720;;;16.6;67.5
68489;BME280;55481;48.764;8.936;2022-09-09T07:17:28;96710;;;16.7;67.5
68489;BME280;55481;48.764;8.936;2022-09-09T07:19:53;96720;;;16.8;67
68489;BME280;55481;48.764;8.936;2022-09-09T07:22:32;96720;;;16.9;67
68489;BME280;55481;48.764;8.936;2022-09-09T07:24:55;96710;;;17;67
68489;BME280;55481;48.764;8.936;2022-09-09T07:27:32;96710;;;17.1;67
68489;BME280;55481;48.764;8.936;2022-09-09T07:35:05;96710;;;17.1;67
68489;BME280;55481;48.764;8.936;2022-09-09T07:37:36;96700;;;17.5;66.5
68489;BME280;55481;48.764;8.936;2022-09-09T07:42:28;96710;;;18.7;63.5
68489;BME280;55481;48.764;8.936;2022-09-09T07:45:00;96700;;;18.8;64
68489;BME280;55481;48.764;8.936;2022-09-09T07:47:31;96690;;;18.7;64.5
68489;BME280;55481;48.764;8.936;2022-09-09T07:54:57;96710;;;17.7;67
68489;BME280;55481;48.764;8.936;2022-09-09T07:57:28;96700;;;18.1;66.5
68489;BME280;55481;48.764;8.936;2022-09-09T07:59:58;96700;;;18.5;65
68489;BME280;55481;48.764;8.936;2022-09-09T08:02:29;96700;;;19.2;64
68489;BME280;55481;48.764;8.936;2022-09-09T08:05:00;96700;;;19.5;63
68489;BME280;55481;48.764;8.936;2022-09-09T08:07:30;96710;;;19.4;63.5
68489;BME280;55481;48.764;8.936;2022-09-09T08:10:02;96720;;;19.1;64.5
68489;BME280;55481;48.764;8.936;2022-09-09T08:12:32;96730;;;19;65
68489;BME280;55481;48.764;8.936;2022-09-09T08:17:34;96730;;;19.1;65
68489;BME280;55481;48.764;8.936;2022-09-09T08:30:14;96720;;;20.5;62.5
68489;BME280;55481;48.764;8.936;2022-09-09T08:35:15;96720;;;20.5;62.5
68489;BME280;55481;48.764;8.936;2022-09-09T08:37:53;96720;;;20.4;63
68489;BME280;55481;48.764;8.936;2022-09-09T08:40:18;96720;;;20.2;64
68489;BME280;55481;48.764;8.936;2022-09-09T08:42:49;96720;;;20.5;63
68489;BME280;55481;48.764;8.936;2022-09-09T08:45:28;96710;;;20.8;62.5
68489;BME280;55481;48.764;8.936;2022-09-09T08:47:56;96720;;;21;62.5
68489;BME280;55481;48.764;8.936;2022-09-09T09:05:37;96740;;;19.4;65.5
68489;BME280;55481;48.764;8.936;2022-09-09T09:08:03;96730;;;20.4;63.5
68489;BME280;55481;48.764;8.936;2022-09-09T09:10:42;96740;;;20.6;63
68489;BME280;55481;48.764;8.936;2022-09-09T09:12:59;96750;;;20.1;64
68489;BME280;55481;48.764;8.936;2022-09-09T09:17:54;96740;;;20.4;64
68489;BME280;55481;48.764;8.936;2022-09-09T09:20:29;96740;;;20.2;64
68489;BME280;55481;48.764;8.936;2022-09-09T09:28:13;96720;;;20.7;63
68489;BME280;55481;48.764;8.936;2022-09-09T09:33:01;96710;;;20.6;63.5
68489;BME280;55481;48.764;8.936;2022-09-09T09:35:36;96720;;;20.8;63
68489;BME280;55481;48.764;8.936;2022-09-09T09:40:51;96710;;;20.7;63
68489;BME280;55481;48.764;8.936;2022-09-09T09:43:17;96710;;;20.8;63
68489;BME280;55481;48.764;8.936;2022-09-09T09:48:02;96700;;;21.5;62
68489;BME280;55481;48.764;8.936;2022-09-09T09:50:32;96700;;;21.4;62
68489;BME280;55481;48.764;8.936;2022-09-09T09:53:04;96690;;;21.2;62.5
68489;BME280;55481;48.764;8.936;2022-09-09T09:55:28;96680;;;21.5;62
68489;BME280;55481;48.764;8.936;2022-09-09T10:05:30;96690;;;21.2;62.5
68489;BME280;55481;48.764;8.936;2022-09-09T10:13:09;96670;;;22.1;61
68489;BME280;55481;48.764;8.936;2022-09-09T10:15:44;96680;;;22.2;60.5
68489;BME280;55481;48.764;8.936;2022-09-09T10:18:17;96690;;;21.2;63
68489;BME280;55481;48.764;8.936;2022-09-09T10:20:42;96690;;;20.8;64.5
68489;BME280;55481;48.764;8.936;2022-09-09T10:24:15;96680;;;21.4;62.5
68489;BME280;55481;48.764;8.936;2022-09-09T10:26:08;96680;;;21.6;62
68489;BME280;55481;48.764;8.936;2022-09-09T10:28:33;96670;;;21.5;62.5
68489;BME280;55481;48.764;8.936;2022-09-09T10:34:33;96680;;;22;61
68489;BME280;55481;48.764;8.936;2022-09-09T10:38:17;96700;;;19.6;66
68489;BME280;55481;48.764;8.936;2022-09-09T10:41:00;96700;;;19.1;67
68489;BME280;55481;48.764;8.936;2022-09-09T10:43:23;96710;;;18.9;67
68489;BME280;55481;48.764;8.936;2022-09-09T10:45:53;96720;;;18.5;67.5
68489;BME280;55481;48.764;8.936;2022-09-09T10:50:55;96730;;;17.3;69.5
68489;BME280;55481;48.764;8.936;2022-09-09T10:53:27;96740;;;17;69.5
68489;BME280;55481;48.764;8.936;2022-09-09T10:58:25;96760;;;14.5;74.5
68489;BME280;55481;48.764;8.936;2022-09-09T11:00:56;96770;;;14.5;74
68489;BME280;55481;48.764;8.936;2022-09-09T11:03:26;96770;;;14.6;73.5
68489;BME280;55481;48.764;8.936;2022-09-09T11:05:58;96770;;;14.8;73
68489;BME280;55481;48.764;8.936;2022-09-09T11:08:29;96780;;;15;72
68489;BME280;55481;48.764;8.936;2022-09-09T11:11:02;96790;;;15.2;71.5
68489;BME280;55481;48.764;8.936;2022-09-09T11:13:35;96800;;;15.3;71
68489;BME280;55481;48.764;8.936;2022-09-09T11:16:04;96800;;;15.2;71.5
68489;BME280;55481;48.764;8.936;2022-09-09T11:18:39;96810;;;15.3;71
68489;BME280;55481;48.764;8.936;2022-09-09T11:26:07;96800;;;15.2;71.5
68489;BME280;55481;48.764;8.936;2022-09-09T11:28:42;96790;;;15.3;71
68489;BME280;55481;48.764;8.936;2022-09-09T11:31:15;96790;;;15.3;71
68489;BME280;55481;48.764;8.936;2022-09-09T11:33:42;96780;;;15.5;70.5
68489;BME280;55481;48.764;8.936;2022-09-09T11:36:16;96770;;;15.6;70
68489;BME280;55481;48.764;8.936;2022-09-09T11:38:44;96770;;;15.7;70
68489;BME280;55481;48.764;8.936;2022-09-09T11:41:22;96760;;;15.9;69.5
68489;BME280;55481;48.764;8.936;2022-09-09T11:43:45;96740;;;16;69.5
68489;BME280;55481;48.764;8.936;2022-09-09T11:46:14;96740;;;16.3;69
68489;BME280;55481;48.764;8.936;2022-09-09T11:48:58;96730;;;16.8;68
68489;BME280;55481;48.764;8.936;2022-09-09T11:51:30;96730;;;17.3;67
68489;BME280;55481;48.764;8.936;2022-09-09T11:53:49;96720;;;17.8;66.5
68489;BME280;55481;48.764;8.936;2022-09-09T11:56:25;96710;;;20.7;61
68489;BME280;55481;48.764;8.936;2022-09-09T11:58:56;96710;;;20.3;62.5
68489;BME280;55481;48.764;8.936;2022-09-09T12:03:49;96710;;;18.8;68
68489;BME280;55481;48.764;8.936;2022-09-09T12:06:25;96700;;;21.1;63.5
68489;BME280;55481;48.764;8.936;2022-09-09T12:08:53;96710;;;19;68.5
68489;BME280;55481;48.764;8.936;2022-09-09T12:11:23;96710;;;18.2;71.5
68489;BME280;55481;48.764;8.936;2022-09-09T12:13:56;96720;;;18.1;71.5
68489;BME280;55481;48.764;8.936;2022-09-09T12:21:21;96700;;;21.9;63
68489;BME280;55481;48.764;8.936;2022-09-09T12:31:24;96690;;;23.6;63
68489;BME280;55481;48.764;8.936;2022-09-09T12:33:52;96670;;;24.2;62.5
68489;BME280;55481;48.764;8.936;2022-09-09T12:36:25;96680;;;23.4;64.5
68489;BME280;55481;48.764;8.936;2022-09-09T12:38:54;96670;;;24;64.5
68489;BME280;55481;48.764;8.936;2022-09-09T12:51:47;96680;;;20.2;75.5
68489;BME280;55481;48.764;8.936;2022-09-09T12:57:33;96670;;;21.7;72
68489;BME280;55481;48.764;8.936;2022-09-09T13:02:32;96640;;;24.3;65.5
68489;BME280;55481;48.764;8.936;2022-09-09T13:05:08;96650;;;22.5;70
68489;BME280;55481;48.764;8.936;2022-09-09T13:07:36;96640;;;24;67
68489;BME280;55481;48.764;8.936;2022-09-09T13:12:41;96640;;;24.3;67
68489;BME280;55481;48.764;8.936;2022-09-09T13:15:14;96630;;;25.3;65
68489;BME280;55481;48.764;8.936;2022-09-09T13:17:48;96640;;;24.2;67.5
68489;BME280;55481;48.764;8.936;2022-09-09T13:20:17;96640;;;25.2;66
68489;BME280;55481;48.764;8.936;2022-09-09T13:22:46;96630;;;25.4;65
68489;BME280;55481;48.764;8.936;2022-09-09T13:25:24;96640;;;24.1;69.5
68489;BME280;55481;48.764;8.936;2022-09-09T13:32:59;96630;;;25.7;65.5
68489;BME280;55481;48.764;8.936;2022-09-09T13:35:32;96640;;;24.9;68.5
68489;BME280;55481;48.764;8.936;2022-09-09T13:37:56;96630;;;25.3;67.5
68489;BME280;55481;48.764;8.936;2022-09-09T13:40:26;96630;;;26;65.5
68489;BME280;55481;48.764;8.936;2022-09-09T13:42:56;96630;;;25.7;66.5
68489;BME280;55481;48.764;8.936;2022-09-09T13:45:27;96620;;;26.1;65.5
68489;BME280;55481;48.764;8.936;2022-09-09T13:47:50;96630;;;25.1;68
68489;BME280;55481;48.764;8.936;2022-09-09T13:52:52;96620;;;26.6;64.5
68489;BME280;55481;48.764;8.936;2022-09-09T13:55:23;96620;;;27;63.5
68489;BME280;55481;48.764;8.936;2022-09-09T13:57:55;96610;;;28;61.5
68489;BME280;55481;48.764;8.936;2022-09-09T14:00:26;96620;;;27.3;63.5
68489;BME280;55481;48.764;8.936;2022-09-09T14:02:56;96620;;;27.1;64
68489;BME280;55481;48.764;8.936;2022-09-09T14:07:58;96620;;;26.3;66
68489;BME280;55481;48.764;8.936;2022-09-09T14:10:28;96630;;;24.6;70
68489;BME280;55481;48.764;8.936;2022-09-09T14:12:59;96620;;;25.5;67.5
68489;BME280;55481;48.764;8.936;2022-09-09T14:15:30;96620;;;26.8;64
68489;BME280;55481;48.764;8.936;2022-09-09T14:18:09;96620;;;26.4;64.5
68489;BME280;55481;48.764;8.936;2022-09-09T14:20:39;96620;;;25.3;67.5
68489;BME280;55481;48.764;8.936;2022-09-09T14:23:03;96620;;;26.2;65
68489;BME280;55481;48.764;8.936;2022-09-09T14:25:34;96620;;;25.7;66.5
68489;BME280;55481;48.764;8.936;2022-09-09T14:28:07;96610;;;26.7;63.5
68489;BME280;55481;48.764;8.936;2022-09-09T14:30:30;96610;;;26.4;64
68489;BME280;55481;48.764;8.936;2022-09-09T14:33:00;96610;;;26.5;64
68489;BME280;55481;48.764;8.936;2022-09-09T14:35:31;96620;;;26;64.5
68489;BME280;55481;48.764;8.936;2022-09-09T14:38:02;96620;;;25.2;67
68489;BME280;55481;48.764;8.936;2022-09-09T14:40:33;96620;;;25.6;66
68489;BME280;55481;48.764;8.936;2022-09-09T14:43:04;96630;;;25.4;66
68489;BME280;55481;48.764;8.936;2022-09-09T14:51:05;96630;;;26.4;63
68489;BME280;55481;48.764;8.936;2022-09-09T14:53:33;96620;;;26.1;63
68489;BME280;55481;48.764;8.936;2022-09-09T14:55:49;96640;;;24.1;68
68489;BME280;55481;48.764;8.936;2022-09-09T15:00:44;96650;;;21.6;73
68489;BME280;55481;48.764;8.936;2022-09-09T15:03:13;96660;;;21.6;72
68489;BME280;55481;48.764;8.936;2022-09-09T15:05:47;96650;;;21.2;72
68489;BME280;55481;48.764;8.936;2022-09-09T15:08:17;96650;;;22.3;70
68489;BME280;55481;48.764;8.936;2022-09-09T15:11:01;96640;;;22.9;67.5
68489;BME280;55481;48.764;8.936;2022-09-09T15:15:49;96620;;;24.2;63
68489;BME280;55481;48.764;8.936;2022-09-09T15:20:56;96610;;;25.3;60
68489;BME280;55481;48.764;8.936;2022-09-09T15:23:27;96620;;;24.5;62.5
68489;BME280;55481;48.764;8.936;2022-09-09T15:28:21;96630;;;22.4;67.5
68489;BME280;55481;48.764;8.936;2022-09-09T15:30:53;96640;;;21.7;69
68489;BME280;55481;48.764;8.936;2022-09-09T15:33:23;96640;;;21.1;70
68489;BME280;55481;48.764;8.936;2022-09-09T15:35:57;96650;;;20.7;70.5
68489;BME280;55481;48.764;8.936;2022-09-09T15:40:56;96670;;;20.3;70.5
68489;BME280;55481;48.764;8.936;2022-09-09T15:43:24;96670;;;20.3;70
68489;BME280;55481;48.764;8.936;2022-09-09T15:45:52;96670;;;20.2;70
68489;BME280;55481;48.764;8.936;2022-09-09T15:48:24;96670;;;20.2;70
68489;BME280;55481;48.764;8.936;2022-09-09T15:51:00;96670;;;20.1;69.5
68489;BME280;55481;48.764;8.936;2022-09-09T15:53:23;96670;;;20;69.5
68489;BME280;55481;48.764;8.936;2022-09-09T15:55:54;96680;;;20;69.5
68489;BME280;55481;48.764;8.936;2022-09-09T15:58:24;96680;;;19.8;69.5
68489;BME280;55481;48.764;8.936;2022-09-09T16:01:00;96680;;;19.8;69.5
68489;BME280;55481;48.764;8.936;2022-09-09T16:05:57;96700;;;19.5;69.5
68489;BME280;55481;48.764;8.936;2022-09-09T16:08:35;96700;;;19.5;69.5
68489;BME280;55481;48.764;8.936;2022-09-09T16:11:15;96700;;;19.4;69.5
68489;BME280;55481;48.764;8.936;2022-09-09T16:13:36;96720;;;19.3;69.5
68489;BME280;55481;48.764;8.936;2022-09-09T16:16:06;96730;;;19;70
68489;BME280;55481;48.764;8.936;2022-09-09T16:18:39;96740;;;18.7;70.5
68489;BME280;55481;48.764;8.936;2022-09-09T16:21:02;96740;;;18.4;71
68489;BME280;55481;48.764;8.936;2022-09-09T16:23:33;96740;;;18.2;71.5
68489;BME280;55481;48.764;8.936;2022-09-09T16:26:03;96740;;;18.1;71.5
68489;BME280;55481;48.764;8.936;2022-09-09T16:36:23;96740;;;17.8;71
68489;BME280;55481;48.764;8.936;2022-09-09T16:38:37;96740;;;17.5;71.5
68489;BME280;55481;48.764;8.936;2022-09-09T16:41:22;96750;;;17.3;72
68489;BME280;55481;48.764;8.936;2022-09-09T16:43:53;96750;;;17.1;72.5
68489;BME280;55481;48.764;8.936;2022-09-09T16:46:22;96740;;;16.9;72.5
68489;BME280;55481;48.764;8.936;2022-09-09T16:48:52;96740;;;16.8;72.5
68489;BME280;55481;48.764;8.936;2022-09-09T16:51:30;96730;;;16.7;72.5
68489;BME280;55481;48.764;8.936;2022-09-09T16:54:00;96730;;;16.6;72.5
68489;BME280;55481;48.764;8.936;2022-09-09T16:56:24;96730;;;16.5;72.5
68489;BME280;55481;48.764;8.936;2022-09-09T16:59:00;96730;;;16.4;72.5
68489;BME280;55481;48.764;8.936;2022-09-09T17:01:37;96730;;;16.4;72.5
68489;BME280;55481;48.764;8.936;2022-09-09T17:03:54;96730;;;16.3;72.5
68489;BME280;55481;48.764;8.936;2022-09-09T17:08:53;96720;;;16.2;72
68489;BME280;55481;48.764;8.936;2022-09-09T17:11:19;96730;;;16.3;72
68489;BME280;55481;48.764;8.936;2022-09-09T17:13:50;96730;;;16.2;71.5
68489;BME280;55481;48.764;8.936;2022-09-09T17:16:28;96730;;;16.2;71.5
68489;BME280;55481;48.764;8.936;2022-09-09T17:24:13;96740;;;16.2;71
68489;BME280;55481;48.764;8.936;2022-09-09T17:29:01;96740;;;16.1;71.5
68489;BME280;55481;48.764;8.936;2022-09-09T17:31:31;96740;;;16.1;71.5
68489;BME280;55481;48.764;8.936;2022-09-09T17:34:01;96750;;;16;71.5
68489;BME280;55481;48.764;8.936;2022-09-09T17:36:32;96750;;;16;71.5
68489;BME280;55481;48.764;8.936;2022-09-09T17:39:01;96750;;;16;71.5
68489;BME280;55481;48.764;8.936;2022-09-09T17:41:32;96750;;;16;71.5
68489;BME280;55481;48.764;8.936;2022-09-09T17:44:03;96750;;;16.1;71
68489;BME280;55481;48.764;8.936;2022-09-09T17:46:28;96740;;;16.1;71
68489;BME280;55481;48.764;8.936;2022-09-09T17:51:23;96740;;;16.2;71
68489;BME280;55481;48.764;8.936;2022-09-09T17:53:56;96740;;;16.1;71
68489;BME280;55481;48.764;8.936;2022-09-09T17:56:24;96740;;;16.1;71
68489;BME280;55481;48.764;8.936;2022-09-09T17:58:55;96750;;;16;71
68489;BME280;55481;48.764;8.936;2022-09-09T18:01:26;96750;;;16.1;71
68489;BME280;55481;48.764;8.936;2022-09-09T18:03:56;96760;;;16.1;71
68489;BME280;55481;48.764;8.936;2022-09-09T18:11:30;96750;;;16.2;70.5
68489;BME280;55481;48.764;8.936;2022-09-09T18:16:36;96760;;;16.3;70.5
68489;BME280;55481;48.764;8.936;2022-09-09T18:19:09;96760;;;16.2;70.5
68489;BME280;55481;48.764;8.936;2022-09-09T18:21:38;96760;;;16.2;70.5
68489;BME280;55481;48.764;8.936;2022-09-09T18:24:04;96760;;;16.3;70.5
68489;BME280;55481;48.764;8.936;2022-09-09T18:26:33;96760;;;16.2;70.5
68489;BME280;55481;48.764;8.936;2022-09-09T18:29:05;96770;;;16.2;70.5
68489;BME280;55481;48.764;8.936;2022-09-09T18:31:34;96770;;;16.2;70.5
68489;BME280;55481;48.764;8.936;2022-09-09T18:36:37;96780;;;16.3;70.5
68489;BME280;55481;48.764;8.936;2022-09-09T18:39:06;96780;;;16.3;70.5
68489;BME280;55481;48.764;8.936;2022-09-09T18:41:46;96790;;;16.3;70.5
68489;BME280;55481;48.764;8.936;2022-09-09T18:44:16;96790;;;16.2;70.5
68489;BME280;55481;48.764;8.936;2022-09-09T18:46:46;96800;;;16.2;70.5
68489;BME280;55481;48.764;8.936;2022-09-09T18:49:10;96810;;;16.2;70.5
68489;BME280;55481;48.764;8.936;2022-09-09T18:51:43;96810;;;16.2;70.5
68489;BME280;55481;48.764;8.936;2022-09-09T18:59:15;96790;;;16.2;70.5
68489;BME280;55481;48.764;8.936;2022-09-09T19:01:44;96790;;;16.1;70.5
68489;BME280;55481;48.764;8.936;2022-09-09T19:04:15;96790;;;16.1;70.5
68489;BME280;55481;48.764;8.936;2022-09-09T19:06:45;96790;;;16.1;70.5
68489;BME280;55481;48.764;8.936;2022-09-09T19:09:17;96790;;;16.1;70.5
68489;BME280;55481;48.764;8.936;2022-09-09T19:14:35;96790;;;16.1;70.5
68489;BME280;55481;48.764;8.936;2022-09-09T19:16:55;96800;;;16;71
68489;BME280;55481;48.764;8.936;2022-09-09T19:19:27;96800;;;16;71
68489;BME280;55481;48.764;8.936;2022-09-09T19:26:52;96800;;;15.8;71
68489;BME280;55481;48.764;8.936;2022-09-09T19:29:22;96800;;;15.8;71
68489;BME280;55481;48.764;8.936;2022-09-09T19:31:53;96790;;;15.7;71
68489;BME280;55481;48.764;8.936;2022-09-09T19:34:23;96810;;;15.7;71
68489;BME280;55481;48.764;8.936;2022-09-09T19:36:54;96810;;;15.6;71.5
68489;BME280;55481;48.764;8.936;2022-09-09T19:39:24;96810;;;15.6;71.5
68489;BME280;55481;48.764;8.936;2022-09-09T19:41:55;96810;;;15.5;71.5
68489;BME280;55481;48.764;8.936;2022-09-09T19:44:26;96810;;;15.5;71.5
68489;BME280;55481;48.764;8.936;2022-09-09T19:46:57;96810;;;15.5;71.5